Time;durP1;ratioP1;P1;durP2;ratioP2;P2;SDS_P1;SDS_P2;PMS_P1;PMS_P2;Temp;Humidity;BMP_temperature;BMP_pressure;BME280_temperature;BME280_humidity;BME280_pressure;Samples;Min_cycle;Max_cycle;Signal;HPM_P1;HPM_P2
2024/01/06 00:00:01;;;;;;;7.47;4.70;;;2.50;68.00;;;;;;5002434;28;20113;-87
2024/01/06 00:02:37;;;;;;;9.60;4.85;;;2.50;67.90;;;;;;5002109;28;20107;-83
2024/01/06 00:05:04;;;;;;;9.95;5.18;;;2.50;67.80;;;;;;5001501;28;20124;-87
2024/01/06 00:07:30;;;;;;;9.25;5.18;;;2.60;67.90;;;;;;5002729;28;20038;-87
2024/01/06 00:09:56;;;;;;;9.23;5.18;;;2.60;67.90;;;;;;5005864;28;20030;-84
2024/01/06 00:12:22;;;;;;;9.35;5.30;;;2.60;67.90;;;;;;5000613;28;20032;-87
2024/01/06 00:14:48;;;;;;;8.27;5.28;;;2.60;67.80;;;;;;5001171;28;20088;-88
2024/01/06 00:17:15;;;;;;;8.98;5.50;;;2.60;68.30;;;;;;5002280;28;20041;-86
2024/01/06 00:19:41;;;;;;;8.80;5.15;;;2.60;67.70;;;;;;4999318;28;20369;-85
2024/01/06 00:22:08;;;;;;;9.05;5.13;;;2.60;67.90;;;;;;5009588;28;20064;-86
2024/01/06 00:24:34;;;;;;;9.10;5.57;;;2.60;67.70;;;;;;4986480;28;20041;-86
2024/01/06 00:27:00;;;;;;;10.85;5.72;;;2.60;67.70;;;;;;5000993;28;20029;-86
2024/01/06 00:29:26;;;;;;;10.02;6.03;;;2.60;67.90;;;;;;5000574;28;20532;-87
2024/01/06 00:31:52;;;;;;;9.07;5.40;;;2.60;67.90;;;;;;5000251;28;20112;-82
2024/01/06 00:34:18;;;;;;;8.82;5.47;;;2.60;68.00;;;;;;5005396;28;20489;-90
2024/01/06 00:36:44;;;;;;;8.98;5.32;;;2.60;68.10;;;;;;4988004;28;20034;-84
2024/01/06 00:39:10;;;;;;;8.85;6.03;;;2.60;68.10;;;;;;5003772;28;20065;-82
2024/01/06 00:41:36;;;;;;;8.43;5.75;;;2.60;68.10;;;;;;4986414;28;20424;-83
2024/01/06 00:44:02;;;;;;;8.73;5.43;;;2.60;68.10;;;;;;5016131;28;20041;-84
2024/01/06 00:46:28;;;;;;;9.25;5.57;;;2.60;68.10;;;;;;5002892;28;20037;-85
2024/01/06 00:48:54;;;;;;;8.73;5.28;;;2.60;68.00;;;;;;5003263;28;20042;-85
2024/01/06 00:51:20;;;;;;;8.68;5.70;;;2.60;67.90;;;;;;5002290;28;20075;-84
2024/01/06 00:53:47;;;;;;;9.43;5.57;;;2.60;67.90;;;;;;5001500;28;20034;-85
2024/01/06 00:56:13;;;;;;;9.77;6.05;;;2.60;68.60;;;;;;4996592;28;20038;-88
2024/01/06 00:58:39;;;;;;;9.68;5.55;;;2.60;68.30;;;;;;5001878;28;20030;-89
2024/01/06 01:01:05;;;;;;;9.75;5.88;;;2.60;68.60;;;;;;4983854;28;20107;-88
2024/01/06 01:03:31;;;;;;;12.20;6.80;;;2.60;68.90;;;;;;5004095;28;20041;-89
2024/01/06 01:05:57;;;;;;;9.48;5.65;;;2.60;68.80;;;;;;5000241;28;20030;-82
2024/01/06 01:08:23;;;;;;;9.50;6.35;;;2.60;68.60;;;;;;4989362;28;20489;-90
2024/01/06 01:10:49;;;;;;;10.63;6.50;;;2.60;68.80;;;;;;5002837;28;20045;-86
2024/01/06 01:13:15;;;;;;;11.05;6.07;;;2.60;68.80;;;;;;4987042;28;20030;-84
2024/01/06 01:15:41;;;;;;;11.10;6.38;;;2.60;68.70;;;;;;5002578;28;20034;-84
2024/01/06 01:18:07;;;;;;;9.25;5.70;;;2.60;68.80;;;;;;5002532;28;20044;-84
2024/01/06 01:20:33;;;;;;;9.02;5.78;;;2.60;69.00;;;;;;4988303;28;20400;-85
2024/01/06 01:22:59;;;;;;;11.25;6.57;;;2.70;68.90;;;;;;4970350;28;20590;-85
2024/01/06 01:25:25;;;;;;;9.05;5.63;;;2.70;69.00;;;;;;4970713;28;20030;-85
2024/01/06 01:27:51;;;;;;;8.52;5.47;;;2.70;69.10;;;;;;5001431;28;20073;-85
2024/01/06 01:30:17;;;;;;;8.48;5.78;;;2.70;69.10;;;;;;5000591;28;20104;-85
2024/01/06 01:32:44;;;;;;;9.25;6.13;;;2.70;69.20;;;;;;5003120;28;20475;-85
2024/01/06 01:35:10;;;;;;;9.27;5.82;;;2.70;68.90;;;;;;5000659;28;20038;-85
2024/01/06 01:37:36;;;;;;;9.13;5.93;;;2.70;68.90;;;;;;5001951;28;20056;-83
2024/01/06 01:40:02;;;;;;;9.43;5.57;;;2.80;69.10;;;;;;5006467;28;20132;-86
2024/01/06 01:42:28;;;;;;;10.63;6.88;;;2.80;68.80;;;;;;4973819;28;20029;-85
2024/01/06 01:44:54;;;;;;;8.90;5.97;;;2.80;68.70;;;;;;4988545;28;20037;-85
2024/01/06 01:47:21;;;;;;;8.90;5.70;;;2.70;68.70;;;;;;4984794;28;20042;-83
2024/01/06 01:49:47;;;;;;;9.68;6.10;;;2.80;68.70;;;;;;4987095;28;20049;-84
2024/01/06 01:52:15;;;;;;;9.90;5.60;;;2.80;68.70;;;;;;4973516;28;20057;-86
2024/01/06 01:54:43;;;;;;;8.93;5.82;;;2.70;68.50;;;;;;4955381;28;20041;-86
2024/01/06 01:57:11;;;;;;;10.45;5.57;;;2.80;68.70;;;;;;4977863;28;20043;-86
2024/01/06 01:59:37;;;;;;;9.18;5.85;;;2.70;68.60;;;;;;4989973;28;20087;-84
2024/01/06 02:02:03;;;;;;;11.75;5.93;;;2.70;68.60;;;;;;4971004;28;20030;-79
2024/01/06 02:04:29;;;;;;;9.05;5.97;;;2.70;68.60;;;;;;5001052;28;20038;-81
2024/01/06 02:06:55;;;;;;;9.95;5.80;;;2.70;68.60;;;;;;5005251;28;20589;-82
2024/01/06 02:09:26;;;;;;;9.13;5.88;;;2.80;68.60;;;;;;4973666;28;20069;-82
2024/01/06 02:11:53;;;;;;;7.85;5.22;;;2.70;68.40;;;;;;5004203;28;20025;-85
2024/01/06 02:14:19;;;;;;;8.98;5.78;;;2.70;68.20;;;;;;4972762;28;20054;-84
2024/01/06 02:16:45;;;;;;;8.05;5.32;;;2.70;68.40;;;;;;5004483;28;20030;-85
2024/01/06 02:19:12;;;;;;;10.45;5.55;;;2.70;68.30;;;;;;5005014;28;20354;-86
2024/01/06 02:21:42;;;;;;;11.35;5.97;;;2.70;68.20;;;;;;5001471;28;20037;-84
2024/01/06 02:24:09;;;;;;;8.93;5.65;;;2.70;68.20;;;;;;4989092;28;20038;-86
2024/01/06 02:26:35;;;;;;;8.63;5.18;;;2.70;68.30;;;;;;4969698;28;20037;-87
2024/01/06 02:29:01;;;;;;;10.45;5.93;;;2.70;68.10;;;;;;4983795;28;20049;-85
2024/01/06 02:31:27;;;;;;;8.90;5.93;;;2.70;68.00;;;;;;4956954;28;20102;-86
2024/01/06 02:33:53;;;;;;;8.85;5.63;;;2.70;68.00;;;;;;4967129;28;20034;-83
2024/01/06 02:36:20;;;;;;;9.60;5.85;;;2.70;68.10;;;;;;5002259;28;20173;-84
2024/01/06 02:38:45;;;;;;;8.65;5.68;;;2.70;68.40;;;;;;4993790;28;20066;-84
2024/01/06 02:41:11;;;;;;;9.13;5.72;;;2.70;68.30;;;;;;5003694;28;20497;-84
2024/01/06 02:43:37;;;;;;;8.18;5.93;;;2.70;68.80;;;;;;4999270;28;20042;-83
2024/01/06 02:46:03;;;;;;;8.50;5.60;;;2.70;69.20;;;;;;5000236;28;20109;-84
2024/01/06 02:48:30;;;;;;;8.85;5.72;;;2.70;68.90;;;;;;5004603;28;20054;-84
2024/01/06 02:50:56;;;;;;;9.25;6.05;;;2.70;69.10;;;;;;5002400;28;20131;-81
2024/01/06 02:53:22;;;;;;;8.45;5.72;;;2.70;68.90;;;;;;5002264;28;20091;-83
2024/01/06 02:55:48;;;;;;;8.13;5.10;;;2.70;69.30;;;;;;5006166;28;20428;-86
2024/01/06 02:58:14;;;;;;;8.00;5.45;;;2.70;69.50;;;;;;5003515;28;20026;-85
2024/01/06 03:00:40;;;;;;;6.60;4.75;;;2.80;69.70;;;;;;5000095;28;20133;-82
2024/01/06 03:03:06;;;;;;;7.63;4.85;;;2.80;69.60;;;;;;5001350;28;20157;-83
2024/01/06 03:05:32;;;;;;;9.75;5.88;;;2.80;69.60;;;;;;5002180;28;20113;-83
2024/01/06 03:07:58;;;;;;;8.98;5.40;;;2.80;69.50;;;;;;4988366;28;20064;-82
2024/01/06 03:10:24;;;;;;;10.15;6.28;;;2.80;69.40;;;;;;5005958;28;20079;-83
2024/01/06 03:12:51;;;;;;;10.85;5.80;;;2.80;69.50;;;;;;4999648;28;20034;-83
2024/01/06 03:15:16;;;;;;;8.60;4.97;;;2.80;69.70;;;;;;5000028;28;20041;-82
2024/01/06 03:17:43;;;;;;;8.95;6.05;;;2.80;69.60;;;;;;5001364;28;20022;-83
2024/01/06 03:20:09;;;;;;;9.85;6.03;;;2.80;69.50;;;;;;5001289;28;20074;-85
2024/01/06 03:22:35;;;;;;;10.40;5.65;;;2.80;69.30;;;;;;5003846;28;20124;-83
2024/01/06 03:25:02;;;;;;;8.23;5.55;;;2.80;69.30;;;;;;4998939;28;20030;-83
2024/01/06 03:27:28;;;;;;;7.82;5.43;;;2.80;69.10;;;;;;5001628;28;20064;-83
2024/01/06 03:29:54;;;;;;;8.55;5.05;;;2.90;69.10;;;;;;5001130;28;20493;-83
2024/01/06 03:32:20;;;;;;;8.88;5.18;;;2.80;69.00;;;;;;4999599;28;20042;-84
2024/01/06 03:34:46;;;;;;;8.27;5.43;;;2.80;69.20;;;;;;4996188;28;20104;-84
2024/01/06 03:37:12;;;;;;;10.13;5.72;;;2.90;69.10;;;;;;5000372;28;20034;-83
2024/01/06 03:39:38;;;;;;;9.40;5.30;;;2.90;68.90;;;;;;4998798;28;20854;-84
2024/01/06 03:42:05;;;;;;;9.63;5.30;;;2.90;68.90;;;;;;5004612;28;20670;-84
2024/01/06 03:44:33;;;;;;;11.27;6.07;;;2.90;68.90;;;;;;4999619;28;20049;-84
2024/01/06 03:46:59;;;;;;;8.88;5.70;;;2.90;68.70;;;;;;4998904;28;20035;-84
2024/01/06 03:49:26;;;;;;;9.60;5.70;;;2.90;68.70;;;;;;4971416;28;20086;-84
2024/01/06 03:51:52;;;;;;;10.65;5.78;;;2.90;68.80;;;;;;4987576;28;20061;-85
2024/01/06 03:54:18;;;;;;;9.63;5.82;;;2.80;68.40;;;;;;5001165;28;20033;-83
2024/01/06 03:56:44;;;;;;;10.00;5.75;;;2.90;68.60;;;;;;5003294;28;20033;-83
2024/01/06 03:59:10;;;;;;;8.27;5.25;;;2.80;67.80;;;;;;4983868;28;20555;-82
2024/01/06 04:01:36;;;;;;;8.20;5.13;;;2.80;68.10;;;;;;4987625;28;20073;-83
2024/01/06 04:04:05;;;;;;;9.68;5.72;;;2.80;67.90;;;;;;4985773;28;20034;-82
2024/01/06 04:06:31;;;;;;;10.23;6.00;;;2.80;67.90;;;;;;4999757;28;20431;-84
2024/01/06 04:08:58;;;;;;;10.95;5.97;;;2.80;68.30;;;;;;4987778;28;20153;-82
2024/01/06 04:11:24;;;;;;;8.95;5.45;;;2.80;68.20;;;;;;4983965;28;20037;-83
2024/01/06 04:13:50;;;;;;;9.07;5.43;;;2.80;68.20;;;;;;4998751;28;20040;-83
2024/01/06 04:16:16;;;;;;;9.48;5.93;;;2.80;68.10;;;;;;4970582;28;20634;-81
2024/01/06 04:18:42;;;;;;;9.48;5.80;;;2.80;67.80;;;;;;4984019;28;20041;-82
2024/01/06 04:21:08;;;;;;;7.20;5.10;;;2.80;67.40;;;;;;4985751;28;20037;-83
2024/01/06 04:23:34;;;;;;;10.65;6.15;;;2.80;67.80;;;;;;5000971;28;20033;-82
2024/01/06 04:26:01;;;;;;;9.30;5.40;;;2.80;68.00;;;;;;4981999;28;20034;-82
2024/01/06 04:28:27;;;;;;;9.27;5.40;;;2.70;67.50;;;;;;4987279;28;20038;-82
2024/01/06 04:30:53;;;;;;;10.07;5.20;;;2.80;67.80;;;;;;4971671;28;20030;-81
2024/01/06 04:33:19;;;;;;;8.18;5.50;;;2.80;67.90;;;;;;4988316;28;20109;-81
2024/01/06 04:35:45;;;;;;;8.15;5.75;;;2.80;68.00;;;;;;4966190;28;20502;-84
2024/01/06 04:38:11;;;;;;;10.40;5.40;;;2.80;68.00;;;;;;4985913;28;20065;-84
2024/01/06 04:40:37;;;;;;;9.23;5.53;;;2.90;68.00;;;;;;5002899;28;20128;-81
2024/01/06 04:43:03;;;;;;;9.88;5.72;;;2.90;67.90;;;;;;4999698;28;20389;-84
2024/01/06 04:45:29;;;;;;;8.65;5.35;;;2.90;67.80;;;;;;4999401;28;20042;-84
2024/01/06 04:47:55;;;;;;;9.48;5.55;;;2.90;67.80;;;;;;5000226;28;20026;-84
2024/01/06 04:50:22;;;;;;;9.88;5.60;;;2.90;67.70;;;;;;4997121;28;20045;-83
2024/01/06 04:52:48;;;;;;;8.65;5.70;;;2.90;67.50;;;;;;5002335;28;20034;-83
2024/01/06 04:55:14;;;;;;;9.27;6.32;;;2.90;67.50;;;;;;4998799;28;20473;-86
2024/01/06 04:57:40;;;;;;;8.50;5.28;;;2.90;67.20;;;;;;4984280;28;20133;-86
2024/01/06 05:00:07;;;;;;;9.57;5.40;;;2.90;67.20;;;;;;4983705;28;20065;-86
2024/01/06 05:02:33;;;;;;;10.27;5.75;;;2.90;67.10;;;;;;5001876;28;20030;-86
2024/01/06 05:04:59;;;;;;;10.85;6.20;;;2.90;67.10;;;;;;4997604;28;20133;-87
2024/01/06 05:07:25;;;;;;;8.45;5.45;;;2.90;66.90;;;;;;5005840;28;20062;-87
2024/01/06 05:09:51;;;;;;;6.97;4.85;;;2.90;67.10;;;;;;5002711;28;20137;-86
2024/01/06 05:12:17;;;;;;;10.07;6.25;;;2.90;66.90;;;;;;5007917;28;20038;-84
2024/01/06 05:14:43;;;;;;;10.60;5.90;;;2.90;66.80;;;;;;5005016;28;20030;-86
2024/01/06 05:17:09;;;;;;;10.10;6.35;;;2.90;67.00;;;;;;5003037;28;20045;-87
2024/01/06 05:19:36;;;;;;;9.13;5.05;;;2.90;66.80;;;;;;5004176;28;20054;-86
2024/01/06 05:22:02;;;;;;;9.00;5.65;;;2.90;67.00;;;;;;5003855;28;20136;-86
2024/01/06 05:24:28;;;;;;;10.27;5.50;;;2.90;66.80;;;;;;5005829;28;20034;-86
2024/01/06 05:26:54;;;;;;;10.13;6.03;;;2.90;66.90;;;;;;5006476;28;20030;-86
2024/01/06 05:29:20;;;;;;;10.75;5.90;;;2.90;66.80;;;;;;4972284;28;20386;-85
2024/01/06 05:31:48;;;;;;;11.15;5.70;;;2.90;66.60;;;;;;5003383;28;20049;-85
2024/01/06 05:34:15;;;;;;;11.00;5.82;;;2.80;66.90;;;;;;5003109;28;20026;-85
2024/01/06 05:36:41;;;;;;;10.70;5.70;;;2.90;66.60;;;;;;5004212;28;20524;-83
2024/01/06 05:39:08;;;;;;;12.25;6.20;;;2.80;66.10;;;;;;4990034;28;20064;-86
2024/01/06 05:41:39;;;;;;;8.60;5.65;;;2.90;66.10;;;;;;5006477;28;20036;-84
2024/01/06 05:44:05;;;;;;;9.43;5.88;;;2.80;65.80;;;;;;5005936;28;20137;-84
2024/01/06 05:46:31;;;;;;;8.40;5.45;;;2.90;65.90;;;;;;5001779;28;20562;-84
2024/01/06 05:48:57;;;;;;;8.30;5.45;;;2.90;65.60;;;;;;5000483;28;20080;-82
2024/01/06 05:51:23;;;;;;;11.00;6.03;;;2.90;65.50;;;;;;5003331;28;20124;-83
2024/01/06 05:53:49;;;;;;;8.95;5.53;;;2.90;65.50;;;;;;5006750;28;20523;-83
2024/01/06 05:56:25;;;;;;;8.35;5.32;;;2.80;65.90;;;;;;4989454;28;20141;-83
2024/01/06 05:58:52;;;;;;;;;;;2.80;65.60;;;;;;5007345;28;20408;-84
2024/01/06 06:01:19;;;;;;;8.88;5.43;;;2.80;65.60;;;;;;5005808;28;20273;-84
2024/01/06 06:03:46;;;;;;;7.97;5.30;;;2.90;65.70;;;;;;5001447;28;20034;-83
2024/01/06 06:06:12;;;;;;;9.00;5.95;;;2.80;65.70;;;;;;5002358;28;20104;-85
2024/01/06 06:08:42;;;;;;;9.02;6.22;;;2.80;66.10;;;;;;4997198;28;20046;-82
2024/01/06 06:11:10;;;;;;;9.55;6.13;;;2.90;66.30;;;;;;5004551;28;20034;-84
2024/01/06 06:13:41;;;;;;;10.30;6.30;;;2.90;66.50;;;;;;4989458;28;20041;-84
2024/01/06 06:16:12;;;;;;;11.63;7.00;;;2.90;66.20;;;;;;5000104;28;20092;-84
2024/01/06 06:18:38;;;;;;;9.07;5.68;;;2.90;66.10;;;;;;5001631;28;20516;-83
2024/01/06 06:21:06;;;;;;;9.23;5.60;;;2.90;66.00;;;;;;4983401;28;20041;-85
2024/01/06 06:23:32;;;;;;;11.32;6.15;;;2.90;66.00;;;;;;4985668;28;20088;-85
2024/01/06 06:25:59;;;;;;;10.95;6.18;;;2.90;66.00;;;;;;5004982;28;20911;-82
2024/01/06 06:28:26;;;;;;;11.00;7.10;;;2.90;66.10;;;;;;4991456;28;20607;-84
2024/01/06 06:30:52;;;;;;;10.15;6.28;;;2.90;66.10;;;;;;5004807;28;20033;-84
2024/01/06 06:33:18;;;;;;;10.75;6.45;;;2.90;66.20;;;;;;4989219;28;20026;-83
2024/01/06 06:35:44;;;;;;;11.95;6.28;;;2.90;66.20;;;;;;4988451;28;20058;-85
2024/01/06 06:38:10;;;;;;;11.05;6.63;;;2.90;66.00;;;;;;5001958;28;20092;-85
2024/01/06 06:40:36;;;;;;;12.98;6.60;;;2.90;66.20;;;;;;4985760;28;20065;-84
2024/01/06 06:43:03;;;;;;;12.05;6.28;;;2.90;66.10;;;;;;5000129;28;20049;-84
2024/01/06 06:45:29;;;;;;;10.10;6.45;;;2.90;65.80;;;;;;5000951;28;20501;-85
2024/01/06 06:47:55;;;;;;;11.25;6.82;;;2.90;65.80;;;;;;5003044;28;20563;-84
2024/01/06 06:50:21;;;;;;;12.07;6.47;;;2.90;65.80;;;;;;5006164;28;20038;-84
2024/01/06 06:52:47;;;;;;;11.02;6.32;;;3.00;65.60;;;;;;5002471;28;20034;-83
2024/01/06 06:55:13;;;;;;;11.07;6.05;;;2.90;65.50;;;;;;4988122;28;20219;-84
2024/01/06 06:57:39;;;;;;;9.38;6.18;;;3.00;65.30;;;;;;5021357;28;20136;-84
2024/01/06 07:00:07;;;;;;;9.90;7.13;;;3.00;65.30;;;;;;5004530;28;20457;-83
2024/01/06 07:02:33;;;;;;;12.38;6.72;;;3.00;65.00;;;;;;5002918;28;20464;-80
2024/01/06 07:04:59;;;;;;;11.50;6.95;;;3.00;65.10;;;;;;5002701;28;20591;-83
2024/01/06 07:07:25;;;;;;;13.43;6.68;;;3.00;65.20;;;;;;4987738;28;20632;-81
2024/01/06 07:09:51;;;;;;;12.20;6.28;;;3.00;65.30;;;;;;5004579;28;20053;-84
2024/01/06 07:12:17;;;;;;;11.13;6.28;;;3.00;65.50;;;;;;4984516;28;20045;-83
2024/01/06 07:14:43;;;;;;;11.70;6.45;;;3.00;65.30;;;;;;4999216;28;20054;-84
2024/01/06 07:17:09;;;;;;;12.18;6.25;;;3.00;65.50;;;;;;4987121;28;20065;-83
2024/01/06 07:19:36;;;;;;;11.30;6.90;;;3.00;65.70;;;;;;4982920;28;20046;-84
2024/01/06 07:22:02;;;;;;;9.93;6.40;;;3.00;65.70;;;;;;4984084;28;20038;-84
2024/01/06 07:24:28;;;;;;;9.75;6.60;;;3.00;65.90;;;;;;4983431;28;20038;-83
2024/01/06 07:26:54;;;;;;;10.18;6.50;;;3.00;65.80;;;;;;4984383;28;20036;-83
2024/01/06 07:29:20;;;;;;;9.55;6.32;;;3.00;65.50;;;;;;5001385;28;20034;-81
2024/01/06 07:31:47;;;;;;;9.73;5.97;;;3.00;65.80;;;;;;5015369;28;20492;-83
2024/01/06 07:34:13;;;;;;;9.05;6.28;;;3.00;66.00;;;;;;5004058;28;20034;-84
2024/01/06 07:36:39;;;;;;;9.32;5.93;;;3.00;66.00;;;;;;5000944;28;20501;-82
2024/01/06 07:39:05;;;;;;;12.50;7.18;;;3.00;65.70;;;;;;5001259;28;20119;-82
2024/01/06 07:41:32;;;;;;;11.70;6.85;;;3.10;65.70;;;;;;5000855;28;20050;-84
2024/01/06 07:44:00;;;;;;;12.23;6.82;;;3.10;65.60;;;;;;4988547;28;20034;-81
2024/01/06 07:46:26;;;;;;;11.38;6.82;;;3.10;66.00;;;;;;4999034;28;20096;-82
2024/01/06 07:48:52;;;;;;;10.20;6.72;;;3.10;66.00;;;;;;5001261;28;20050;-83
2024/01/06 07:51:18;;;;;;;10.68;6.45;;;3.10;65.70;;;;;;5001489;28;20034;-81
2024/01/06 07:53:44;;;;;;;9.95;6.20;;;3.10;65.70;;;;;;5004056;28;20034;-90
2024/01/06 07:56:11;;;;;;;12.88;6.82;;;3.10;65.60;;;;;;4987032;28;20429;-86
2024/01/06 07:58:37;;;;;;;13.13;6.70;;;3.10;65.40;;;;;;4999802;28;20038;-88
2024/01/06 08:01:03;;;;;;;12.80;6.90;;;3.10;65.50;;;;;;4999540;28;20489;-84
2024/01/06 08:03:29;;;;;;;11.68;6.28;;;3.10;65.60;;;;;;5000731;28;20536;-87
2024/01/06 08:05:55;;;;;;;10.40;6.38;;;3.10;65.70;;;;;;5000879;28;20054;-86
2024/01/06 08:08:21;;;;;;;10.00;6.80;;;3.10;65.50;;;;;;4998668;28;20088;-88
2024/01/06 08:10:48;;;;;;;12.77;6.85;;;3.10;65.50;;;;;;5000229;28;20484;-84
2024/01/06 08:13:14;;;;;;;10.15;6.25;;;3.10;65.40;;;;;;5001661;28;20120;-85
2024/01/06 08:15:40;;;;;;;13.40;6.57;;;3.10;66.00;;;;;;4987376;28;20045;-83
2024/01/06 08:18:06;;;;;;;12.50;7.50;;;3.10;65.40;;;;;;5000891;28;20065;-85
2024/01/06 08:20:32;;;;;;;19.90;7.00;;;3.20;65.50;;;;;;4996964;28;20030;-86
2024/01/06 08:23:04;;;;;;;12.15;6.60;;;3.20;65.60;;;;;;4999539;28;20042;-90
2024/01/06 08:25:30;;;;;;;8.80;6.20;;;3.20;65.30;;;;;;5000649;28;20037;-88
2024/01/06 08:27:56;;;;;;;10.82;6.63;;;3.20;65.10;;;;;;5000938;28;20470;-88
2024/01/06 08:30:23;;;;;;;12.27;7.15;;;3.20;65.80;;;;;;4999223;28;20081;-88
2024/01/06 08:32:49;;;;;;;14.73;7.68;;;3.20;65.30;;;;;;5004193;28;20388;-87
2024/01/06 08:35:16;;;;;;;13.95;7.32;;;3.20;65.70;;;;;;4986623;28;20061;-84
2024/01/06 08:37:44;;;;;;;11.95;6.80;;;3.20;65.30;;;;;;4997564;28;20042;-90
2024/01/06 08:40:10;;;;;;;12.43;7.00;;;3.20;65.30;;;;;;5003219;28;20037;-84
2024/01/06 08:42:36;;;;;;;11.15;6.82;;;3.20;65.40;;;;;;4958830;28;20113;-81
2024/01/06 08:45:02;;;;;;;10.20;6.10;;;3.20;66.00;;;;;;4988050;28;20129;-82
2024/01/06 08:47:28;;;;;;;11.02;6.13;;;3.30;67.00;;;;;;4982586;28;20045;-84
2024/01/06 08:49:57;;;;;;;12.45;7.63;;;3.30;66.30;;;;;;4986252;28;20041;-83
2024/01/06 08:52:23;;;;;;;14.30;8.15;;;3.30;65.30;;;;;;4998958;28;20501;-83
2024/01/06 08:54:51;;;;;;;14.00;7.90;;;3.30;64.30;;;;;;4982727;28;20049;-83
2024/01/06 08:57:17;;;;;;;13.63;7.95;;;3.30;63.40;;;;;;5015470;28;20122;-80
2024/01/06 08:59:45;;;;;;;14.02;7.93;;;3.30;63.10;;;;;;4986812;28;20421;-85
2024/01/06 09:02:11;;;;;;;12.15;7.90;;;3.30;62.80;;;;;;4997744;28;20038;-81
2024/01/06 09:04:37;;;;;;;14.90;8.13;;;3.20;62.70;;;;;;5015266;28;20033;-86
2024/01/06 09:07:12;;;;;;;16.48;8.65;;;3.20;62.00;;;;;;5017028;28;20077;-87
2024/01/06 09:09:47;;;;;;;15.80;8.50;;;3.20;62.40;;;;;;5011981;28;20491;-83
2024/01/06 09:12:13;;;;;;;16.20;8.77;;;3.20;62.50;;;;;;5019904;28;20040;-86
2024/01/06 09:14:39;;;;;;;12.25;7.90;;;3.20;62.30;;;;;;4985217;28;20061;-90
2024/01/06 09:17:05;;;;;;;14.13;8.00;;;3.20;62.50;;;;;;5014016;28;20048;-89
2024/01/06 09:19:31;;;;;;;14.00;8.35;;;3.20;62.30;;;;;;5028965;28;20050;-81
2024/01/06 09:21:57;;;;;;;14.75;8.02;;;3.20;62.50;;;;;;5027692;28;20068;-88
2024/01/06 09:24:23;;;;;;;13.23;8.00;;;3.20;62.50;;;;;;5008332;28;20042;-89
2024/01/06 09:26:50;;;;;;;13.95;8.23;;;3.20;62.50;;;;;;5027703;28;20060;-87
2024/01/06 09:29:16;;;;;;;13.43;8.25;;;3.20;62.50;;;;;;5008742;28;20062;-81
2024/01/06 09:31:43;;;;;;;17.42;9.07;;;3.20;62.50;;;;;;5027763;28;20046;-85
2024/01/06 09:34:12;;;;;;;14.02;8.10;;;3.20;62.40;;;;;;5020329;28;20034;-84
2024/01/06 09:36:38;;;;;;;12.75;8.38;;;3.20;62.50;;;;;;4984719;28;20058;-84
2024/01/06 09:39:04;;;;;;;14.68;9.23;;;3.20;62.40;;;;;;5026466;28;20117;-82
2024/01/06 09:41:31;;;;;;;12.70;8.40;;;3.20;62.40;;;;;;5006741;28;20050;-84
2024/01/06 09:43:57;;;;;;;15.55;8.45;;;3.10;62.10;;;;;;5006201;28;20073;-82
2024/01/06 09:46:31;;;;;;;18.88;9.27;;;3.10;62.10;;;;;;5016212;28;20038;-85
2024/01/06 09:48:58;;;;;;;14.07;8.00;;;3.10;62.10;;;;;;4990397;28;20034;-83
2024/01/06 09:51:28;;;;;;;15.13;8.23;;;3.10;62.20;;;;;;5007036;28;20129;-88
2024/01/06 09:54:07;;;;;;;16.38;9.60;;;3.10;62.30;;;;;;4973438;28;20149;-85
2024/01/06 09:56:34;;;;;;;17.27;9.43;;;3.10;62.20;;;;;;5017745;28;20074;-87
2024/01/06 09:59:01;;;;;;;14.82;8.77;;;3.10;62.10;;;;;;5005002;28;20030;-84
2024/01/06 10:01:27;;;;;;;15.75;8.45;;;3.10;62.10;;;;;;5008428;28;20038;-88
2024/01/06 10:03:53;;;;;;;17.27;9.40;;;3.10;62.00;;;;;;5005249;28;20061;-87
2024/01/06 10:06:20;;;;;;;17.48;9.65;;;3.10;62.10;;;;;;5018613;28;20026;-84
2024/01/06 10:08:53;;;;;;;16.83;8.82;;;3.10;61.90;;;;;;4973003;28;20042;-86
2024/01/06 10:11:21;;;;;;;16.33;9.40;;;3.10;61.90;;;;;;5012497;28;20454;-87
2024/01/06 10:13:51;;;;;;;16.05;9.15;;;3.10;61.80;;;;;;5021759;28;20058;-86
2024/01/06 10:16:17;;;;;;;15.75;9.13;;;3.10;61.70;;;;;;5023023;28;20038;-89
2024/01/06 10:18:44;;;;;;;16.20;9.02;;;3.10;61.70;;;;;;5004529;28;20057;-90
2024/01/06 10:21:10;;;;;;;15.00;9.43;;;3.10;61.70;;;;;;5011476;28;20034;-85
2024/01/06 10:23:36;;;;;;;17.83;9.57;;;3.10;61.60;;;;;;4994523;28;20064;-83
2024/01/06 10:26:03;;;;;;;15.05;9.38;;;3.10;61.60;;;;;;5004491;28;20493;-88
2024/01/06 10:28:30;;;;;;;16.42;8.73;;;3.10;61.50;;;;;;4993052;28;20136;-87
2024/01/06 10:30:57;;;;;;;17.77;10.05;;;3.10;61.60;;;;;;5007855;28;20062;-84
2024/01/06 10:33:25;;;;;;;14.88;9.35;;;3.10;61.60;;;;;;5005703;28;20044;-85
2024/01/06 10:35:52;;;;;;;15.27;9.98;;;3.10;61.80;;;;;;4996822;28;20061;-82
2024/01/06 10:38:18;;;;;;;15.43;9.05;;;3.10;61.70;;;;;;5014160;28;20062;-82
2024/01/06 10:40:58;;;;;;;16.67;9.43;;;3.10;61.60;;;;;;4986299;28;20038;-83
2024/01/06 10:43:28;;;;;;;17.48;9.35;;;3.10;61.90;;;;;;4982896;28;20101;-84
2024/01/06 10:45:57;;;;;;;16.23;10.25;;;3.10;62.20;;;;;;5012106;28;20042;-79
2024/01/06 10:48:28;;;;;;;15.60;9.15;;;3.10;62.10;;;;;;4981181;28;20029;-79
2024/01/06 10:50:55;;;;;;;19.48;10.32;;;3.10;62.00;;;;;;4996194;28;20033;-79
2024/01/06 10:57:33;;;;;;;18.95;9.57;;;3.10;62.20;;;;;;4961956;28;20126;-79
2024/01/06 11:00:00;;;;;;;16.70;10.10;;;3.10;62.30;;;;;;5003802;28;20033;-76
2024/01/06 11:02:27;;;;;;;15.98;9.95;;;3.10;62.40;;;;;;5001293;28;20058;-77
2024/01/06 11:04:54;;;;;;;17.25;10.18;;;3.10;62.50;;;;;;4999977;28;20044;-78
2024/01/06 11:07:25;;;;;;;15.60;10.20;;;3.10;62.50;;;;;;4999226;28;20034;-78
2024/01/06 11:10:05;;;;;;;17.25;9.95;;;3.00;62.40;;;;;;4996815;28;20065;-77
2024/01/06 11:12:32;;;;;;;17.17;9.63;;;3.00;62.40;;;;;;5003619;28;20042;-78
2024/01/06 11:14:58;;;;;;;16.60;9.95;;;3.00;62.30;;;;;;4990518;28;20041;-80
2024/01/06 11:17:53;;;;;;;20.63;9.75;;;3.00;62.40;;;;;;4993230;28;20040;-80
2024/01/06 11:20:23;;;;;;;16.75;9.93;;;3.00;62.30;;;;;;5007221;28;20037;-79
2024/01/06 11:22:51;;;;;;;17.55;10.05;;;3.00;62.20;;;;;;5007926;28;20037;-78
2024/01/06 11:25:19;;;;;;;17.73;9.43;;;3.00;62.10;;;;;;5006794;28;20034;-78
2024/01/06 11:27:50;;;;;;;15.00;9.13;;;3.00;62.10;;;;;;4989430;28;20077;-78
2024/01/06 11:30:19;;;;;;;15.70;9.95;;;3.00;62.00;;;;;;4975762;28;20056;-79
2024/01/06 11:32:46;;;;;;;17.10;9.88;;;3.00;61.90;;;;;;5006802;28;20475;-78
2024/01/06 11:35:14;;;;;;;16.15;10.10;;;3.00;61.90;;;;;;4988510;28;20061;-79
2024/01/06 11:37:41;;;;;;;19.42;10.07;;;3.00;61.80;;;;;;4986398;28;20592;-78
2024/01/06 11:40:25;;;;;;;19.48;9.90;;;3.00;61.70;;;;;;5007312;28;20045;-78
2024/01/06 11:43:07;;;;;;;19.20;10.60;;;3.10;61.90;;;;;;4980432;28;20068;-81
2024/01/06 11:45:40;;;;;;;16.50;9.90;;;3.00;61.80;;;;;;5009976;28;20077;-84
2024/01/06 11:48:12;;;;;;;18.15;10.48;;;3.00;61.90;;;;;;4982723;28;20045;-82
2024/01/06 11:50:39;;;;;;;16.92;10.95;;;3.00;62.10;;;;;;4997948;28;20512;-81
2024/01/06 11:53:09;;;;;;;21.92;10.93;;;3.00;62.30;;;;;;4996469;28;20046;-83
2024/01/06 11:55:38;;;;;;;19.42;10.50;;;3.00;62.30;;;;;;4965341;28;20049;-81
2024/01/06 11:58:05;;;;;;;19.10;10.85;;;3.00;62.30;;;;;;4993408;28;20103;-81
2024/01/06 12:00:39;;;;;;;18.90;10.98;;;3.00;62.00;;;;;;5011765;28;20038;-81
2024/01/06 12:03:05;;;;;;;21.63;11.25;;;3.00;61.90;;;;;;4980833;28;20017;-82
2024/01/06 12:05:31;;;;;;;19.25;11.02;;;3.00;62.10;;;;;;4965428;28;20069;-80
2024/01/06 12:07:58;;;;;;;16.30;10.23;;;3.00;62.00;;;;;;5012587;28;20038;-79
2024/01/06 12:10:26;;;;;;;23.00;11.27;;;3.00;62.00;;;;;;4991958;28;20034;-81
2024/01/06 12:13:02;;;;;;;18.30;10.88;;;3.00;62.20;;;;;;4977819;28;20084;-80
2024/01/06 12:15:30;;;;;;;18.95;10.65;;;3.00;62.00;;;;;;5012349;28;20042;-80
2024/01/06 12:17:57;;;;;;;18.17;10.77;;;3.00;62.10;;;;;;4973672;28;20061;-80
2024/01/06 12:20:24;;;;;;;18.52;10.68;;;3.00;62.10;;;;;;4990767;28;20129;-84
2024/01/06 12:22:52;;;;;;;17.08;10.68;;;3.00;61.90;;;;;;4996381;28;20038;-83
2024/01/06 12:25:20;;;;;;;19.13;11.13;;;3.00;61.90;;;;;;4998500;28;20057;-83
2024/01/06 12:27:46;;;;;;;20.30;10.88;;;2.90;62.00;;;;;;4967119;28;20026;-83
2024/01/06 12:30:18;;;;;;;17.65;10.43;;;3.00;62.10;;;;;;4982951;28;20060;-85
2024/01/06 12:32:49;;;;;;;19.77;11.13;;;3.00;62.30;;;;;;5013368;28;20049;-84
2024/01/06 12:35:15;;;;;;;22.08;11.85;;;3.00;62.30;;;;;;4967048;28;20033;-81
2024/01/06 12:37:42;;;;;;;21.10;11.55;;;3.00;62.30;;;;;;4977610;28;20057;-82
2024/01/06 12:40:10;;;;;;;19.67;10.90;;;3.00;62.20;;;;;;4974999;28;20038;-79
2024/01/06 12:42:36;;;;;;;22.67;12.27;;;3.00;62.40;;;;;;5009924;28;20053;-80
2024/01/06 12:45:03;;;;;;;19.42;11.57;;;3.00;62.40;;;;;;4994548;28;20115;-79
2024/01/06 12:47:30;;;;;;;23.75;13.10;;;3.00;62.30;;;;;;5012360;28;20038;-81
2024/01/06 12:49:56;;;;;;;21.73;12.00;;;3.00;62.10;;;;;;5010480;28;20046;-79
2024/01/06 12:52:22;;;;;;;19.10;12.07;;;3.00;62.10;;;;;;4993331;28;20108;-79